Terminal Aerodrome Forecast
Issued by NWS Goodland, KS

Home | Current Version | Previous Version | Text Only | Print | Product List | Glossary On
Versions: 1 2 3 4 5 6 7 8 9 10 11 12 13 14 15
000
FTUS43 KGLD 192300 RRA
TAFGLD
TAF
KGLD 192341Z 2000/2024 03013KT P6SM BKN120
     FM200300 02011KT P6SM VCSH BKN090
     FM200700 36007KT P6SM BKN060
     FM201800 03011KT P6SM BKN060=

USA.gov is the U.S. government's official web portal to all federal, state and local government web resources and services.